Time;durP1;ratioP1;P1;durP2;ratioP2;P2;SDS_P1;SDS_P2;PMS_P1;PMS_P2;Temp;Humidity;BMP_temperature;BMP_pressure;BME280_temperature;BME280_humidity;BME280_pressure;Samples;Min_cycle;Max_cycle;Signal;HPM_P1;HPM_P2
2024/01/02 00:01:01;;;;;;;2.33;1.10;;;;;;;18.98;53.28;96108.25;10398973;28;20056;-30
2024/01/02 00:06:01;;;;;;;6.67;1.10;;;;;;;18.98;53.40;96089.66;10399898;28;20303;-30
2024/01/02 00:11:02;;;;;;;3.77;1.43;;;;;;;18.97;53.61;96082.91;10399126;28;20033;-29
2024/01/02 00:16:02;;;;;;;4.90;1.13;;;;;;;18.94;53.62;96076.19;10400637;28;20442;-30
2024/01/02 00:21:03;;;;;;;3.63;1.27;;;;;;;18.95;53.56;96060.13;10398091;28;20075;-29
2024/01/02 00:26:03;;;;;;;2.75;1.00;;;;;;;18.94;53.78;96055.91;10398180;28;20045;-29
2024/01/02 00:31:04;;;;;;;6.22;1.33;;;;;;;18.93;53.68;96051.66;10398467;28;20502;-30
2024/01/02 00:36:04;;;;;;;4.53;1.57;;;;;;;18.93;53.69;96035.63;10393070;28;20033;-29
2024/01/02 00:41:05;;;;;;;2.00;1.20;;;;;;;18.91;53.59;96017.06;10396464;28;20048;-30
2024/01/02 00:46:05;;;;;;;2.50;1.30;;;;;;;18.93;53.79;96025.47;10396289;28;20124;-31
2024/01/02 00:51:06;;;;;;;2.08;1.00;;;;;;;18.97;53.62;96011.88;10398060;28;20048;-29
2024/01/02 00:56:07;;;;;;;3.17;1.20;;;;;;;18.95;53.65;96000.91;10399459;28;20033;-29
2024/01/02 01:01:07;;;;;;;2.38;1.20;;;;;;;18.93;53.60;95979.81;10395854;28;20046;-30
2024/01/02 01:06:07;;;;;;;2.40;1.40;;;;;;;18.94;53.84;95981.50;10396316;28;20041;-30
2024/01/02 01:11:08;;;;;;;3.50;1.20;;;;;;;18.91;54.01;95964.63;10400888;28;20033;-30
2024/01/02 01:16:08;;;;;;;5.73;1.40;;;;;;;18.92;53.63;95970.53;10406644;28;20035;-29
2024/01/02 01:21:09;;;;;;;4.77;1.23;;;;;;;18.85;54.03;95956.25;10404953;28;20292;-30
2024/01/02 01:26:09;;;;;;;1.80;0.83;;;;;;;18.93;53.82;95949.38;10408181;28;20068;-29
2024/01/02 01:31:10;;;;;;;3.10;1.20;;;;;;;18.94;53.83;95961.19;10404044;28;20484;-29
2024/01/02 01:36:10;;;;;;;3.30;1.00;;;;;;;18.94;53.65;95951.91;10403892;28;20038;-31
2024/01/02 01:41:10;;;;;;;5.30;1.30;;;;;;;18.88;53.85;95931.69;10407047;28;20037;-30
2024/01/02 01:46:13;;;;;;;3.40;1.05;;;;;;;18.89;54.10;95940.97;10404350;28;20519;-30
2024/01/02 01:51:14;;;;;;;2.22;0.98;;;;;;;18.91;54.05;95930.81;10402789;28;20033;-29
2024/01/02 01:56:14;;;;;;;3.08;1.10;;;;;;;18.89;53.88;95933.38;10405402;28;20514;-32
2024/01/02 02:01:15;;;;;;;2.67;1.00;;;;;;;18.89;53.90;95919.84;10404794;28;20083;-29
2024/01/02 02:06:15;;;;;;;1.85;1.10;;;;;;;18.90;54.15;95914.75;10403149;28;20399;-30
2024/01/02 02:11:16;;;;;;;4.57;1.65;;;;;;;18.84;54.04;95912.28;10407040;28;20037;-30
2024/01/02 02:16:17;;;;;;;1.85;1.00;;;;;;;18.90;54.10;95918.97;10406364;28;20090;-29
2024/01/02 02:21:17;;;;;;;2.10;0.90;;;;;;;18.88;54.08;95900.41;10404054;28;20034;-32
2024/01/02 02:26:17;;;;;;;4.10;0.90;;;;;;;18.89;53.95;95897.84;10408612;28;20344;-30
2024/01/02 02:31:18;;;;;;;3.80;1.57;;;;;;;18.88;53.95;95880.13;10405038;28;20339;-30
2024/01/02 02:36:18;;;;;;;3.28;1.13;;;;;;;18.90;53.80;95878.38;10397546;28;20037;-30
2024/01/02 02:41:19;;;;;;;2.93;1.00;;;;;;;18.88;54.12;95880.13;10404865;28;20048;-30
2024/01/02 02:46:19;;;;;;;1.27;0.73;;;;;;;18.87;54.35;95873.38;10400544;28;20048;-29
2024/01/02 02:51:19;;;;;;;5.83;1.00;;;;;;;18.85;53.97;95854.81;10401107;28;20056;-30
2024/01/02 02:56:20;;;;;;;2.03;0.90;;;;;;;18.89;53.99;95852.22;10405856;28;20045;-29
2024/01/02 03:01:23;;;;;;;2.43;0.73;;;;;;;18.86;54.18;95831.13;10401566;28;20065;-29
2024/01/02 03:06:23;;;;;;;1.00;0.75;;;;;;;18.89;54.11;95826.00;10401491;28;20044;-30
2024/01/02 03:11:24;;;;;;;1.83;0.80;;;;;;;18.88;53.82;95811.66;10385041;28;20064;-29
2024/01/02 03:16:24;;;;;;;2.50;1.10;;;;;;;18.87;54.18;95807.44;10384697;28;20044;-31
2024/01/02 03:21:28;;;;;;;1.08;0.60;;;;;;;18.86;54.27;95801.53;10395384;28;20026;-30
2024/01/02 03:26:29;;;;;;;1.38;0.80;;;;;;;18.82;54.13;95786.41;10397432;28;20045;-29
2024/01/02 03:31:29;;;;;;;2.20;0.88;;;;;;;18.82;54.35;95776.25;10390136;28;20401;-30
2024/01/02 03:36:29;;;;;;;5.23;1.20;;;;;;;18.84;54.43;95780.41;10376145;28;20152;-33
2024/01/02 03:41:30;;;;;;;1.00;0.50;;;;;;;18.83;54.54;95760.19;10389411;28;20422;-31
2024/01/02 03:46:30;;;;;;;2.42;0.77;;;;;;;18.84;54.37;95761.84;10389083;28;20045;-30
2024/01/02 03:51:30;;;;;;;3.47;1.00;;;;;;;18.83;54.58;95744.97;10395642;28;20029;-30
2024/01/02 03:56:31;;;;;;;1.67;0.70;;;;;;;18.80;54.33;95767.81;10400491;28;20438;-31
2024/01/02 04:01:31;;;;;;;1.20;0.80;;;;;;;18.83;54.62;95755.09;10380824;28;20041;-32
2024/01/02 04:06:32;;;;;;;4.13;1.00;;;;;;;18.83;54.45;95739.91;10377067;28;20041;-30
2024/01/02 04:11:32;;;;;;;3.22;0.65;;;;;;;18.77;54.42;95717.16;10393821;28;20460;-30
2024/01/02 04:16:33;;;;;;;3.10;0.70;;;;;;;18.80;54.47;95735.72;10392400;28;20037;-30
2024/01/02 04:21:33;;;;;;;4.17;0.70;;;;;;;18.83;54.32;95719.59;10390972;28;20038;-30
2024/01/02 04:26:33;;;;;;;3.53;0.60;;;;;;;18.81;54.70;95701.88;10393888;28;20099;-29
2024/01/02 04:31:34;;;;;;;3.33;0.60;;;;;;;18.80;54.62;95694.28;10391580;28;20442;-32
2024/01/02 04:36:34;;;;;;;1.70;0.63;;;;;;;18.82;54.48;95692.59;10370961;28;20025;-30
2024/01/02 04:41:34;;;;;;;0.98;0.43;;;;;;;18.79;54.39;95692.63;10403474;28;20048;-31
2024/01/02 04:46:37;;;;;;;1.57;0.70;;;;;;;18.80;54.64;95689.22;10395053;28;20041;-32
2024/01/02 04:51:37;;;;;;;1.60;0.63;;;;;;;18.80;54.39;95699.34;10391353;28;20735;-29
2024/01/02 04:56:38;;;;;;;1.40;0.70;;;;;;;18.84;54.59;95691.66;10384164;28;20351;-29
2024/01/02 05:01:38;;;;;;;1.60;0.70;;;;;;;18.85;54.45;95682.38;10383784;28;20064;-29
2024/01/02 05:06:38;;;;;;;1.60;0.57;;;;;;;18.87;54.38;95675.56;10396681;28;20674;-30
2024/01/02 05:11:40;;;;;;;2.63;1.17;;;;;;;18.86;54.50;95684.03;10386283;28;20055;-28
2024/01/02 05:16:40;;;;;;;0.60;0.50;;;;;;;18.84;54.61;95681.53;10387022;28;20080;-30
2024/01/02 05:21:40;;;;;;;2.63;0.57;;;;;;;18.86;54.53;95663.75;10394799;28;20519;-30
2024/01/02 05:26:41;;;;;;;0.85;0.65;;;;;;;18.88;54.42;95675.56;10391971;28;20095;-29
2024/01/02 05:31:41;;;;;;;1.40;0.40;;;;;;;18.90;54.37;95652.69;10388937;28;20026;-29
2024/01/02 05:36:44;;;;;;;1.07;0.40;;;;;;;18.91;54.16;95674.66;10384655;28;20024;-29
2024/01/02 05:41:44;;;;;;;1.60;0.50;;;;;;;18.90;53.85;95670.44;10380511;28;20544;-29
2024/01/02 05:46:45;;;;;;;2.43;0.60;;;;;;;18.88;53.89;95646.81;10384895;28;20033;-29
2024/01/02 05:51:45;;;;;;;3.40;0.80;;;;;;;18.88;54.87;95660.34;10384928;28;20300;-30
2024/01/02 05:56:45;;;;;;;3.93;2.03;;;;;;;18.89;54.50;95656.06;10389062;28;20031;-29
2024/01/02 06:01:46;;;;;;;6.23;1.00;;;;;;;18.86;54.73;95638.41;10381980;28;20080;-30
2024/01/02 06:06:46;;;;;;;3.27;0.90;;;;;;;18.89;54.56;95664.53;10395253;28;20053;-30
2024/01/02 06:11:47;;;;;;;3.03;0.95;;;;;;;18.90;54.47;95655.22;10395756;28;20128;-30
2024/01/02 06:16:48;;;;;;;2.67;0.82;;;;;;;18.90;54.07;95670.44;10394797;28;20495;-30
2024/01/02 06:21:48;;;;;;;1.38;0.60;;;;;;;18.88;54.23;95657.78;10404896;28;20045;-30
2024/01/02 06:26:50;;;;;;;1.83;0.70;;;;;;;18.87;54.08;95643.44;10401110;28;20051;-29
2024/01/02 06:31:51;;;;;;;1.20;0.75;;;;;;;18.87;54.09;95645.97;10389456;28;20099;-30
2024/01/02 06:36:51;;;;;;;0.93;0.55;;;;;;;18.88;54.12;95639.19;10396100;28;20091;-30
2024/01/02 06:41:52;;;;;;;1.63;0.63;;;;;;;18.85;54.06;95644.34;10401907;28;20069;-29
2024/01/02 06:46:52;;;;;;;2.27;0.40;;;;;;;18.82;54.10;95662.16;10396716;28;20046;-29
2024/01/02 06:51:52;;;;;;;1.17;0.60;;;;;;;18.81;54.06;95635.94;10385907;28;20671;-30
2024/01/02 06:56:53;;;;;;;1.77;0.60;;;;;;;18.81;54.18;95635.09;10402736;28;20036;-30
2024/01/02 07:01:53;;;;;;;1.57;0.70;;;;;;;18.83;54.04;95634.22;10394039;28;20057;-30
2024/01/02 07:06:53;;;;;;;1.03;0.40;;;;;;;18.82;54.10;95637.63;10398312;28;20288;-30
2024/01/02 07:11:54;;;;;;;1.92;0.65;;;;;;;18.82;53.85;95641.88;10390844;28;20022;-29
2024/01/02 07:16:54;;;;;;;0.90;0.70;;;;;;;18.79;53.92;95627.53;10398027;28;20052;-29
2024/01/02 07:21:55;;;;;;;2.53;0.50;;;;;;;18.80;53.88;95653.72;10392894;28;20041;-29
2024/01/02 07:26:55;;;;;;;1.13;0.60;;;;;;;18.80;53.93;95618.22;10394319;28;20040;-29
2024/01/02 07:31:55;;;;;;;1.50;0.50;;;;;;;18.80;54.01;95613.16;10398132;28;20080;-30
2024/01/02 07:36:56;;;;;;;0.83;0.33;;;;;;;18.80;53.94;95628.34;10394369;28;20047;-29
2024/01/02 07:41:57;;;;;;;1.93;0.40;;;;;;;18.78;53.80;95603.06;10388206;28;20045;-29
2024/01/02 07:47:01;;;;;;;0.82;0.43;;;;;;;18.79;54.04;95591.19;10395143;28;20057;-29
2024/01/02 07:52:02;;;;;;;0.70;0.30;;;;;;;18.84;53.63;95614.78;10402351;28;20112;-30
2024/01/02 07:57:02;;;;;;;0.80;0.40;;;;;;;18.83;53.75;95580.97;10392300;28;20280;-29
2024/01/02 08:02:03;;;;;;;1.50;0.40;;;;;;;18.82;53.77;95570.88;10401025;28;20045;-29
2024/01/02 08:07:06;;;;;;;2.15;0.52;;;;;;;18.83;53.57;95613.09;10403070;28;20043;-29
2024/01/02 08:12:07;;;;;;;1.27;0.65;;;;;;;18.82;53.79;95603.84;10396434;28;20040;-29
2024/01/02 08:17:09;;;;;;;1.42;0.35;;;;;;;18.82;53.78;95611.44;10394888;28;20038;-29
2024/01/02 08:22:10;;;;;;;1.75;0.45;;;;;;;18.81;53.82;95589.44;10386004;28;20403;-29
2024/01/02 08:27:11;;;;;;;7.53;0.70;;;;;;;18.80;54.06;95585.25;10394830;28;20048;-29
2024/01/02 08:32:11;;;;;;;2.87;0.50;;;;;;;18.78;54.04;95597.13;10389442;28;20055;-29
2024/01/02 08:37:11;;;;;;;5.13;0.73;;;;;;;18.80;53.92;95580.19;10392611;28;20372;-29
2024/01/02 08:42:12;;;;;;;1.90;0.60;;;;;;;18.81;53.84;95584.38;10391709;28;20049;-29
2024/01/02 08:47:13;;;;;;;0.77;0.43;;;;;;;18.80;53.95;95593.72;10392686;28;20516;-29
2024/01/02 08:52:13;;;;;;;1.57;0.60;;;;;;;18.78;54.17;95576.84;10392879;28;20028;-30
2024/01/02 08:57:13;;;;;;;3.13;0.43;;;;;;;18.80;53.86;95587.78;10393785;28;20793;-29
2024/01/02 09:02:14;;;;;;;4.07;0.70;;;;;;;18.66;54.11;95597.38;10392054;28;20049;-29
2024/01/02 09:07:14;;;;;;;7.93;1.73;;;;;;;18.71;54.02;95609.09;10394019;28;20292;-30
2024/01/02 09:12:15;;;;;;;1.00;0.50;;;;;;;18.67;53.86;95621.84;10391222;28;20033;-31
2024/01/02 09:17:15;;;;;;;2.25;0.47;;;;;;;18.72;53.85;95627.66;10391581;28;20091;-29
2024/01/02 09:22:16;;;;;;;2.58;0.65;;;;;;;18.77;53.51;95616.56;10394066;28;20041;-30
2024/01/02 09:27:18;;;;;;;3.40;0.50;;;;;;;18.79;53.99;95616.53;10388429;28;20037;-29
2024/01/02 09:32:18;;;;;;;3.28;0.43;;;;;;;18.67;50.20;95606.66;10393283;28;20064;-30
2024/01/02 09:37:19;;;;;;;4.85;0.68;;;;;;;18.69;53.16;95609.97;10401130;28;20125;-30
2024/01/02 09:42:26;;;;;;;6.90;1.00;;;;;;;18.71;53.00;95613.31;10403624;28;20581;-30
2024/01/02 09:47:42;;;;;;;1.90;0.80;;;;;;;18.69;53.27;95605.75;10402454;28;20704;-29
2024/01/02 09:52:48;;;;;;;3.20;0.88;;;;;;;18.68;53.25;95608.31;10401709;28;20041;-30
2024/01/02 09:57:54;;;;;;;2.70;0.80;;;;;;;18.69;53.13;95612.50;10395270;28;20051;-29
2024/01/02 10:03:06;;;;;;;5.20;0.70;;;;;;;18.72;53.15;95594.69;10400906;28;20029;-30
2024/01/02 10:08:19;;;;;;;1.30;0.50;;;;;;;18.71;53.21;95572.75;10397800;28;20051;-31
2024/01/02 10:13:29;;;;;;;3.15;0.80;;;;;;;18.70;53.16;95571.09;10391961;28;20072;-30
2024/01/02 10:19:12;;;;;;;3.15;0.70;;;;;;;18.69;53.32;95569.41;10398941;28;20458;-29
2024/01/02 10:24:33;;;;;;;1.42;0.80;;;;;;;18.69;53.14;95559.28;10400001;28;20091;-29
2024/01/02 10:30:01;;;;;;;2.83;0.90;;;;;;;18.69;53.15;95593.09;10386685;28;20079;-28
2024/01/02 10:35:10;;;;;;;1.58;0.70;;;;;;;18.60;53.19;95555.19;10397790;28;20175;-30
2024/01/02 10:40:19;;;;;;;1.73;0.95;;;;;;;18.67;53.38;95543.28;10401153;28;20499;-30
2024/01/02 10:45:25;;;;;;;2.47;1.42;;;;;;;18.68;53.20;95565.22;10399084;28;20095;-29
2024/01/02 10:50:36;;;;;;;2.17;0.73;;;;;;;18.65;53.26;95578.78;10394691;28;20492;-30
2024/01/02 10:56:19;;;;;;;1.17;0.77;;;;;;;18.66;53.39;95567.78;10397364;28;20022;-30
2024/01/02 11:01:22;;;;;;;2.03;0.85;;;;;;;18.62;53.17;95542.50;10410906;28;20048;-29
2024/01/02 11:06:40;;;;;;;2.00;0.68;;;;;;;18.64;53.23;95551.75;10396243;28;20654;-30
2024/01/02 11:11:41;;;;;;;2.65;0.80;;;;;;;18.65;53.27;95537.38;10403648;28;20057;-29
2024/01/02 11:16:44;;;;;;;1.73;0.60;;;;;;;18.64;53.34;95545.84;10395790;28;20030;-30
2024/01/02 11:21:54;;;;;;;1.15;0.70;;;;;;;18.66;53.32;95516.25;10400965;28;20025;-30
2024/01/02 11:26:58;;;;;;;1.95;0.98;;;;;;;18.68;53.15;95511.97;10401254;28;20044;-29
2024/01/02 11:32:09;;;;;;;1.52;0.70;;;;;;;18.68;53.17;95491.69;10400565;28;20037;-29
2024/01/02 11:37:22;;;;;;;2.42;0.68;;;;;;;18.68;53.09;95472.22;10399603;28;20041;-31
2024/01/02 11:42:41;;;;;;;1.85;0.70;;;;;;;18.69;53.06;95462.94;10400400;28;20033;-30
2024/01/02 11:47:44;;;;;;;2.63;0.75;;;;;;;18.68;52.97;95466.34;10394689;28;20087;-29
2024/01/02 11:52:52;;;;;;;1.48;0.70;;;;;;;18.69;52.96;95419.84;10396047;28;20041;-29
2024/01/02 11:57:54;;;;;;;1.80;1.00;;;;;;;18.64;52.92;95398.81;10398857;28;20541;-30
2024/01/02 12:03:06;;;;;;;3.13;0.93;;;;;;;18.67;52.99;95424.13;10400603;28;20102;-29
2024/01/02 12:08:12;;;;;;;1.85;0.70;;;;;;;18.68;53.07;95423.25;10390802;28;21432;-30
2024/01/02 12:13:26;;;;;;;0.90;0.50;;;;;;;18.66;53.05;95417.41;10398609;28;20034;-30
2024/01/02 12:18:30;;;;;;;1.02;0.68;;;;;;;18.64;53.15;95414.88;10397481;28;20561;-29
2024/01/02 12:23:33;;;;;;;0.93;0.73;;;;;;;18.66;53.02;95423.28;10392826;28;20419;-29
2024/01/02 12:28:39;;;;;;;0.70;0.40;;;;;;;18.67;53.08;95419.06;10396284;28;20048;-30
2024/01/02 12:33:46;;;;;;;1.03;0.60;;;;;;;18.65;53.13;95430.91;10399599;28;20033;-30
2024/01/02 12:38:51;;;;;;;1.15;0.40;;;;;;;18.66;52.88;95417.41;10395913;28;20029;-31
2024/01/02 12:43:59;;;;;;;1.47;0.50;;;;;;;18.62;52.91;95395.50;10399658;28;20045;-29
2024/01/02 12:49:16;;;;;;;1.23;0.60;;;;;;;18.66;53.11;95392.84;10395711;28;20041;-29
2024/01/02 12:54:20;;;;;;;1.00;0.30;;;;;;;18.68;52.99;95393.66;10397797;28;20049;-29
2024/01/02 12:59:28;;;;;;;0.90;0.47;;;;;;;18.67;53.04;95388.63;10396906;28;20397;-29
2024/01/02 13:04:28;;;;;;;2.00;0.43;;;;;;;18.67;52.88;95379.31;10391818;28;20033;-29
2024/01/02 13:09:29;;;;;;;1.00;0.55;;;;;;;18.63;53.00;95377.72;10405763;28;20049;-30
2024/01/02 13:14:30;;;;;;;1.08;0.60;;;;;;;18.65;53.03;95365.00;10408559;28;20030;-29
2024/01/02 13:19:31;;;;;;;1.23;0.85;;;;;;;18.65;52.97;95354.84;10404570;28;20473;-30
2024/01/02 13:24:46;;;;;;;0.93;0.60;;;;;;;18.64;52.98;95361.66;10403998;28;20049;-30
2024/01/02 13:29:47;;;;;;;0.35;0.35;;;;;;;18.58;53.01;95358.41;10400724;28;20030;-30
2024/01/02 13:34:48;;;;;;;0.75;0.40;;;;;;;18.63;52.91;95329.56;10401050;28;20600;-30
2024/01/02 13:39:49;;;;;;;0.85;0.32;;;;;;;18.63;52.99;95336.31;10406166;28;20049;-29
2024/01/02 13:44:50;;;;;;;1.15;0.80;;;;;;;18.65;52.95;95334.56;10401636;28;20502;-30
2024/01/02 13:49:52;;;;;;;1.17;0.70;;;;;;;18.64;52.84;95328.69;10402448;28;20037;-29
2024/01/02 13:54:53;;;;;;;0.52;0.35;;;;;;;18.51;52.85;95308.75;10404454;28;20039;-30
2024/01/02 13:59:57;;;;;;;1.38;0.50;;;;;;;18.60;53.03;95337.22;10403939;28;20549;-29
2024/01/02 14:05:03;;;;;;;0.88;0.40;;;;;;;18.58;52.99;95349.09;10401671;28;20037;-29
2024/01/02 14:10:05;;;;;;;1.20;0.52;;;;;;;18.62;52.96;95334.66;10408061;28;20500;-28
2024/01/02 14:15:19;;;;;;;1.48;0.70;;;;;;;18.61;52.97;95338.06;10405331;28;20065;-29
2024/01/02 14:20:23;;;;;;;0.93;0.40;;;;;;;18.60;52.99;95362.56;10401847;28;20073;-30
2024/01/02 14:25:36;;;;;;;0.85;0.45;;;;;;;18.61;53.01;95360.88;10406469;28;20128;-29
2024/01/02 14:30:38;;;;;;;0.70;0.43;;;;;;;18.62;52.85;95349.88;10396597;28;20044;-29
2024/01/02 14:35:54;;;;;;;0.93;0.50;;;;;;;18.63;52.88;95347.31;10401362;28;20045;-29
2024/01/02 14:41:10;;;;;;;1.10;0.40;;;;;;;18.63;52.84;95349.00;10405759;28;20037;-31
2024/01/02 14:46:35;;;;;;;1.10;0.38;;;;;;;18.60;52.95;95322.00;10401466;28;20079;-29
2024/01/02 14:51:49;;;;;;;0.75;0.30;;;;;;;18.59;53.03;95349.94;10401095;28;20120;-30
2024/01/02 14:57:22;;;;;;;0.50;0.30;;;;;;;18.58;53.04;95338.97;10406857;28;20033;-29
2024/01/02 15:02:31;;;;;;;0.38;0.30;;;;;;;18.59;52.88;95314.47;10398112;28;20037;-31
2024/01/02 15:07:38;;;;;;;0.40;0.38;;;;;;;18.60;52.85;95323.72;10396217;28;20041;-29
2024/01/02 15:13:11;;;;;;;0.75;0.20;;;;;;;18.59;52.89;95299.25;10405287;28;20037;-31
2024/01/02 15:18:48;;;;;;;0.55;0.30;;;;;;;18.60;52.78;95321.19;10404902;28;20470;-30
2024/01/02 15:23:48;;;;;;;;;;;;;;;18.59;53.01;95329.66;10405503;28;20151;-30
2024/01/02 15:28:59;;;;;;;0.20;0.20;;;;;;;18.58;52.72;95308.53;10402712;28;19921;-28
2024/01/02 15:34:18;;;;;;;0.38;0.35;;;;;;;18.58;52.86;95292.53;10398945;28;20036;-29
2024/01/02 15:39:20;;;;;;;0.30;0.30;;;;;;;18.56;52.85;95279.88;10404127;28;20048;-30
2024/01/02 15:44:39;;;;;;;0.30;0.28;;;;;;;18.55;52.94;95265.53;10404435;28;20120;-29
2024/01/02 15:50:00;;;;;;;0.52;0.30;;;;;;;18.57;52.98;95270.59;10395671;28;20041;-30
2024/01/02 15:55:09;;;;;;;0.65;0.40;;;;;;;18.58;52.75;95267.19;10402382;28;20499;-30
2024/01/02 16:00:12;;;;;;;0.55;0.30;;;;;;;18.57;52.87;95245.25;10379743;28;20427;-30
2024/01/02 16:05:38;;;;;;;0.35;0.30;;;;;;;18.55;52.71;95250.34;10389769;28;20048;-29
2024/01/02 16:10:56;;;;;;;0.50;0.38;;;;;;;18.58;52.82;95231.69;10393875;28;20552;-29
2024/01/02 16:16:20;;;;;;;0.70;0.30;;;;;;;18.56;52.83;95246.94;10393350;28;20145;-30
2024/01/02 16:22:06;;;;;;;0.30;0.25;;;;;;;18.58;52.75;95241.84;10391228;28;20459;-27
2024/01/02 16:34:13;;;;;;;0.63;0.40;;;;;;;18.53;52.93;95228.44;10392921;28;20407;-29
2024/01/02 16:39:18;;;;;;;0.25;0.20;;;;;;;18.51;52.93;95222.56;10380712;28;20045;-29
2024/01/02 16:44:23;;;;;;;0.32;0.20;;;;;;;18.51;52.88;95214.97;10400724;28;20470;-29
2024/01/02 16:49:23;;;;;;;0.20;0.20;;;;;;;18.54;52.91;95192.06;10392952;28;20424;-29
2024/01/02 16:54:26;;;;;;;0.30;0.20;;;;;;;18.52;52.76;95196.34;10385420;28;20050;-29
2024/01/02 16:59:29;;;;;;;0.52;0.20;;;;;;;18.54;52.68;95184.47;10377036;28;20470;-29
2024/01/02 17:04:30;;;;;;;0.20;0.20;;;;;;;18.54;52.70;95189.53;10382065;28;20038;-29
2024/01/02 17:09:31;;;;;;;0.50;0.30;;;;;;;18.56;52.60;95157.38;10392528;28;20053;-29
2024/01/02 17:14:31;;;;;;;0.13;0.13;;;;;;;18.54;52.72;95169.28;10387181;28;20397;-29
2024/01/02 17:19:32;;;;;;;0.40;0.32;;;;;;;18.49;52.78;95120.41;10394543;28;20067;-31
2024/01/02 17:24:33;;;;;;;0.40;0.40;;;;;;;18.55;52.57;95116.03;10392869;28;20057;-29
2024/01/02 17:29:34;;;;;;;0.50;0.30;;;;;;;18.51;52.72;95084.00;10388542;28;20030;-29
2024/01/02 17:34:35;;;;;;;0.35;0.20;;;;;;;18.54;52.76;95105.91;10381546;28;20025;-30
2024/01/02 17:39:38;;;;;;;0.40;0.25;;;;;;;18.53;52.82;95096.66;10375833;28;20113;-30
2024/01/02 17:44:39;;;;;;;0.57;0.40;;;;;;;18.54;52.70;95088.19;10384609;28;20034;-30
2024/01/02 17:49:39;;;;;;;0.53;0.20;;;;;;;18.54;52.69;95098.31;10373905;28;20030;-30
2024/01/02 17:54:41;;;;;;;0.52;0.20;;;;;;;18.54;52.60;95093.25;10386890;28;20639;-29
2024/01/02 17:59:49;;;;;;;0.30;0.20;;;;;;;18.51;52.66;95106.81;10403573;28;20025;-29
2024/01/02 18:05:26;;;;;;;0.50;0.30;;;;;;;18.53;52.68;95082.28;10393036;28;20044;-30
2024/01/02 18:10:48;;;;;;;0.30;0.20;;;;;;;18.52;52.86;95100.06;10391260;28;20050;-29
2024/01/02 18:16:13;;;;;;;0.22;0.20;;;;;;;18.51;52.68;95098.41;10397018;28;20079;-29
2024/01/02 18:21:28;;;;;;;0.60;0.25;;;;;;;18.50;52.37;95096.75;10391698;28;20412;-31
2024/01/02 18:26:49;;;;;;;1.23;0.10;;;;;;;18.52;52.74;95100.06;10380292;28;20336;-30
2024/01/02 18:32:17;;;;;;;0.73;0.20;;;;;;;18.52;52.63;95089.94;10389683;28;20029;-29
2024/01/02 18:37:35;;;;;;;;;;;;;;;18.51;52.86;95094.16;10393574;28;20053;-30
2024/01/02 18:42:45;;;;;;;1.45;0.32;;;;;;;18.51;52.79;95090.81;10397167;28;20305;-29
2024/01/02 18:47:48;;;;;;;1.90;0.38;;;;;;;18.52;52.79;95077.25;10387915;28;20573;-29
2024/01/02 18:52:48;;;;;;;1.10;0.40;;;;;;;18.49;52.86;95046.94;10385440;28;20117;-30
2024/01/02 18:57:51;;;;;;;0.57;0.10;;;;;;;18.49;52.85;95079.88;10403084;28;20029;-29
2024/01/02 19:02:52;;;;;;;0.32;0.20;;;;;;;18.49;52.96;95100.97;10398760;28;20042;-29
2024/01/02 19:24:13;;;;;;;0.50;0.22;;;;;;;18.62;52.44;95071.06;10488030;27;20499;-30
2024/01/02 19:29:14;;;;;;;1.35;0.30;;;;;;;18.58;52.70;95100.72;10424381;28;20568;-30
2024/01/02 19:34:15;;;;;;;2.25;0.28;;;;;;;18.55;52.72;95084.78;10431630;28;20069;-29
2024/01/02 19:39:20;;;;;;;1.63;0.30;;;;;;;18.52;53.08;95115.25;10434332;28;20502;-30
2024/01/02 19:44:24;;;;;;;2.60;0.25;;;;;;;18.52;53.02;95133.84;10443227;28;20385;-32
2024/01/02 19:49:24;;;;;;;1.35;0.32;;;;;;;18.52;53.10;95112.72;10438980;28;20022;-29
2024/01/02 19:54:25;;;;;;;3.40;0.50;;;;;;;18.48;53.39;95118.72;10453321;28;20087;-29
2024/01/02 19:59:25;;;;;;;0.30;0.23;;;;;;;18.49;53.05;95117.88;10438918;28;20489;-30
2024/01/02 20:04:36;;;;;;;0.20;0.20;;;;;;;18.47;53.22;95119.59;10438539;28;20033;-29
2024/01/02 20:09:40;;;;;;;0.95;0.28;;;;;;;18.46;53.24;95116.25;10441458;28;20021;-29
2024/01/02 20:14:50;;;;;;;0.20;0.20;;;;;;;18.48;53.10;95106.06;10438500;28;20052;-29
2024/01/02 20:19:55;;;;;;;0.60;0.20;;;;;;;18.46;53.12;95100.22;10439824;28;20033;-29
2024/01/02 20:24:58;;;;;;;2.30;0.38;;;;;;;18.44;53.37;95107.03;10425522;28;20033;-29
2024/01/02 20:30:01;;;;;;;0.90;0.40;;;;;;;18.43;53.56;95107.91;10407039;28;20024;-30
2024/01/02 20:35:04;;;;;;;0.40;0.20;;;;;;;18.41;53.21;95119.78;10425115;28;20045;-29
2024/01/02 20:40:32;;;;;;;0.60;0.30;;;;;;;18.43;53.30;95107.91;10411878;28;20424;-29
2024/01/02 20:45:34;;;;;;;0.90;0.35;;;;;;;18.44;53.15;95122.22;10405345;28;20037;-29
2024/01/02 20:50:35;;;;;;;0.28;0.28;;;;;;;18.45;53.33;95114.59;10402169;28;20099;-29
2024/01/02 20:55:40;;;;;;;0.40;0.30;;;;;;;18.40;53.14;95110.53;10417528;28;20385;-30
2024/01/02 21:00:40;;;;;;;0.28;0.20;;;;;;;18.43;53.13;95111.25;10420359;28;20025;-30
2024/01/02 21:05:54;;;;;;;1.13;0.40;;;;;;;18.45;53.15;95131.50;10402365;28;20041;-29
2024/01/02 21:11:02;;;;;;;1.10;0.40;;;;;;;18.44;53.23;95120.53;10413605;28;20037;-29
2024/01/02 21:16:08;;;;;;;0.20;0.20;;;;;;;18.44;53.01;95101.97;10405491;28;20045;-29
2024/01/02 21:21:41;;;;;;;0.32;0.30;;;;;;;18.44;52.97;95135.75;10406087;28;20531;-29
2024/01/02 21:26:41;;;;;;;0.85;0.50;;;;;;;18.44;53.08;95162.78;10413925;28;20034;-30
2024/01/02 21:31:42;;;;;;;0.33;0.30;;;;;;;18.42;53.06;95151.84;10401182;28;20035;-30
2024/01/02 21:36:42;;;;;;;0.35;0.30;;;;;;;18.43;52.97;95150.97;10401174;28;20530;-28
2024/01/02 21:41:44;;;;;;;0.80;0.30;;;;;;;18.42;53.16;95164.50;10399355;28;20033;-30
2024/01/02 21:46:44;;;;;;;1.20;0.30;;;;;;;18.42;53.24;95161.97;10396445;28;20288;-29
2024/01/02 21:51:45;;;;;;;0.30;0.20;;;;;;;18.37;53.21;95146.91;10398766;28;20534;-29
2024/01/02 21:56:46;;;;;;;0.60;0.35;;;;;;;18.38;53.03;95190.78;10399065;28;20041;-29
2024/01/02 22:01:47;;;;;;;0.23;0.20;;;;;;;18.37;53.28;95192.50;10400024;28;20511;-29
2024/01/02 22:06:47;;;;;;;1.75;0.30;;;;;;;18.38;53.24;95193.31;10397055;28;20991;-29
2024/01/02 22:11:59;;;;;;;0.63;0.40;;;;;;;18.37;53.29;95206.84;10399112;28;20033;-29
2024/01/02 22:17:00;;;;;;;0.20;0.20;;;;;;;18.36;53.19;95211.09;10398641;28;20038;-29
2024/01/02 22:22:03;;;;;;;0.30;0.30;;;;;;;18.35;53.13;95195.94;10398566;28;20065;-30
2024/01/02 22:27:20;;;;;;;0.52;0.17;;;;;;;18.35;53.26;95229.69;10392088;28;20049;-30
2024/01/02 22:32:21;;;;;;;;;;;;;;;18.38;53.17;95264.25;10400763;28;20116;-29
2024/01/02 22:37:22;;;;;;;1.90;0.23;;;;;;;18.42;53.15;95253.19;10395487;28;20035;-30
2024/01/02 22:42:25;;;;;;;1.27;0.20;;;;;;;18.37;53.36;95257.53;10390575;28;20036;-30
2024/01/02 22:47:25;;;;;;;1.05;0.30;;;;;;;18.38;53.42;95269.31;10387931;28;20103;-30
2024/01/02 22:52:25;;;;;;;0.20;0.10;;;;;;;18.36;53.26;95266.00;10390114;28;20124;-29
2024/01/02 22:57:26;;;;;;;0.40;0.20;;;;;;;18.34;53.52;95262.66;10393050;28;20617;-29
2024/01/02 23:02:26;;;;;;;4.93;0.40;;;;;;;18.35;53.39;95266.88;10382969;28;20292;-30
2024/01/02 23:08:04;;;;;;;1.23;0.33;;;;;;;18.32;53.65;95259.34;10386609;28;20128;-30
2024/01/02 23:13:07;;;;;;;0.88;0.40;;;;;;;18.35;53.28;95236.47;10393289;28;20570;-30
2024/01/02 23:18:07;;;;;;;0.63;0.40;;;;;;;18.25;53.37;95237.53;10384778;28;20401;-30
2024/01/02 23:23:46;;;;;;;4.73;0.50;;;;;;;18.32;53.29;95229.75;10382490;28;20053;-29
2024/01/02 23:29:07;;;;;;;2.38;0.63;;;;;;;18.28;53.27;95238.28;10402079;28;20095;-29
2024/01/02 23:34:08;;;;;;;1.60;0.40;;;;;;;18.28;53.40;95237.44;10381764;28;20112;-29
2024/01/02 23:39:09;;;;;;;0.75;0.50;;;;;;;18.32;53.47;95227.22;10387060;28;20037;-29
2024/01/02 23:44:10;;;;;;;1.48;0.50;;;;;;;18.30;53.49;95221.38;10387802;28;20034;-30
2024/01/02 23:49:11;;;;;;;0.57;0.30;;;;;;;18.28;53.21;95222.25;10387496;28;20034;-31
2024/01/02 23:54:40;;;;;;;0.93;0.47;;;;;;;18.30;53.43;95230.66;10387676;28;20296;-29
2024/01/02 23:59:41;;;;;;;0.32;0.30;;;;;;;18.32;53.32;95236.56;10389220;28;20035;-29
